首页
METAR-TAF:

METAR-TAF

机场 :

Greenbrier Valley Airport

Lewisburg, 西維吉尼亞州, 美国

纬度: 37-52N, 经度: 080-24W, 海拔: 702米

当前天气观测

该预报发布于31分钟前的10:35 UTC
静风
温度 16°C
湿度 100%
气压 1017 hPa
能見度: 11.3公里
散云层高于5500英尺
多云层高于7000英尺
阴天层高于12000英尺

METAR: KLWB 201035Z AUTO 00000KT 7SM SCT055 BKN070 OVC120 16/16 A3002 RMK AO2 T01580157

时间: 07:06 (11:06 UTC)

预报

该预报发布于2小时和3分钟前的09:03 UTC
预报有效从20日的 09点(UTC)到 21日的 06点(UTC)
风速3节,风向多变
能見度: 0.4公里
阴天层高于100英尺
短暂存在
从 20日的 09点(UTC)到 20日的 11点(UTC)
能見度: 4.8公里
散云层高于4500英尺
轻雾
从 20日的 1400点(UTC)
风速8节,风向西转西南,有时为16节阵风
能見度: 10公里
散云层高于2200英尺
从 21日的 0100点(UTC)
风速5节,风向西转西北
能見度: 10公里
少量云层高于20000英尺

TAF: KLWB 200903Z 2009/2106 VRB03KT 1/4SM FG OVC001 TEMPO 2009/2011 3SM BR SCT045 FM201400 25008G16KT P6SM SCT022 FM210100 30005KT P6SM FEW200

超过4000个机场的气象观测和天气预报(METAR&TAF报告)。

可查询的气象台以黄色和红色小点在地图上表示。

将鼠标移到小点上方,可查看气象台名称。

然后点击查看天气观测和预报。

如需切换地图:点击带黑十字的绿色按钮放大地图;点击带横线的绿色按钮缩小地图;或者点击绿色箭头查看邻近地区的地图。


METAR-TAF: